createdAt,value
2022-09-17T00:00:22.109Z,72.81
2022-09-17T00:01:25.213Z,73.61
2022-09-17T00:02:27.511Z,74.33
2022-09-17T00:03:29.476Z,74.60
2022-09-17T00:04:31.245Z,75.45
2022-09-17T00:05:32.841Z,76.01
2022-09-17T00:06:35.692Z,76.44
2022-09-17T00:07:37.387Z,76.60
2022-09-17T00:08:41.266Z,76.59
2022-09-17T00:09:43.282Z,76.65
2022-09-17T00:10:44.999Z,75.89
2022-09-17T00:11:46.653Z,75.75
2022-09-17T00:12:48.242Z,75.56
2022-09-17T00:13:51.356Z,74.57
2022-09-17T00:14:53.358Z,74.18
2022-09-17T00:15:55.115Z,74.32
2022-09-17T00:17:01.223Z,73.88
2022-09-17T00:18:03.456Z,73.61
2022-09-17T00:19:06.823Z,73.72
2022-09-17T00:20:12.713Z,73.78
2022-09-17T00:21:17.991Z,73.39
2022-09-17T00:22:19.494Z,73.75
2022-09-17T00:23:21.171Z,73.81
2022-09-17T00:24:22.933Z,73.32
2022-09-17T00:25:24.469Z,72.93
2022-09-17T00:26:27.382Z,72.81
2022-09-17T00:27:28.923Z,73.00
2022-09-17T00:28:30.504Z,73.46
2022-09-17T00:29:32.025Z,74.02
2022-09-17T00:30:33.689Z,74.42
2022-09-17T00:31:35.973Z,74.68
2022-09-17T00:32:37.593Z,74.33
2022-09-17T00:33:39.436Z,73.56
2022-09-17T00:34:43.151Z,73.47
2022-09-17T00:35:45.132Z,74.05
2022-09-17T00:36:46.665Z,74.40
2022-09-17T00:37:48.177Z,74.51
2022-09-17T00:38:55.752Z,74.28
2022-09-17T00:39:57.378Z,73.87
2022-09-17T00:40:59.139Z,73.72
2022-09-17T00:42:00.729Z,73.41
2022-09-17T00:43:04.098Z,73.26
2022-09-17T00:44:42.052Z,72.44
2022-09-17T00:45:43.576Z,72.62
2022-09-17T00:46:45.971Z,72.73
2022-09-17T00:48:00.878Z,72.58
2022-09-17T00:49:18.797Z,72.01
2022-09-17T00:50:26.344Z,71.93
2022-09-17T00:51:36.677Z,71.39
2022-09-17T00:53:09.848Z,68.85
2022-09-17T00:54:11.830Z,67.96
2022-09-17T00:55:19.661Z,68.01
2022-09-17T00:56:25.689Z,67.28
2022-09-17T00:57:28.297Z,67.59
2022-09-17T00:58:32.659Z,67.94
2022-09-17T00:59:34.653Z,68.42
2022-09-17T01:00:37.328Z,68.18
2022-09-17T01:01:39.087Z,68.37
2022-09-17T01:02:42.453Z,68.50
2022-09-17T01:03:44.467Z,68.49
2022-09-17T01:04:46.126Z,68.38
2022-09-17T01:05:50.187Z,68.28
2022-09-17T01:07:31.901Z,68.11
2022-09-17T01:08:54.710Z,69.88
2022-09-17T01:10:14.746Z,70.18
2022-09-17T01:11:54.679Z,70.00
2022-09-17T01:13:21.397Z,70.36
2022-09-17T01:14:28.662Z,71.12
2022-09-17T01:15:49.619Z,71.42
2022-09-17T01:17:26.748Z,71.48
2022-09-17T01:18:51.221Z,72.19
2022-09-17T01:19:58.965Z,72.71
2022-09-17T01:21:34.181Z,72.80
2022-09-17T01:23:03.776Z,72.36
2022-09-17T01:24:20.269Z,71.87
2022-09-17T01:25:25.018Z,71.00
2022-09-17T01:26:29.312Z,69.79
2022-09-17T01:28:21.957Z,69.27
2022-09-17T01:30:00.865Z,67.68
2022-09-17T01:31:23.863Z,67.53
2022-09-17T01:32:41.991Z,66.85
2022-09-17T01:34:21.925Z,66.67
2022-09-17T01:35:29.144Z,66.34
2022-09-17T01:37:12.172Z,66.24
2022-09-17T01:38:37.872Z,65.98
2022-09-17T01:39:44.204Z,65.75
2022-09-17T01:40:54.885Z,66.06
2022-09-17T01:42:18.766Z,65.42
2022-09-17T01:43:30.034Z,64.75
2022-09-17T01:44:56.055Z,64.04
2022-09-17T01:46:05.097Z,64.67
2022-09-17T01:47:22.918Z,64.21
2022-09-17T01:48:33.876Z,64.17
2022-09-17T01:49:39.168Z,63.57
2022-09-17T01:50:58.333Z,63.44
2022-09-17T01:52:01.321Z,63.48
2022-09-17T01:53:05.183Z,63.37
2022-09-17T01:54:18.735Z,62.64
2022-09-17T01:55:22.681Z,62.16
2022-09-17T01:56:28.559Z,62.28
2022-09-17T01:57:40.295Z,63.43
2022-09-17T01:58:48.363Z,63.22
2022-09-17T01:59:57.137Z,63.89
2022-09-17T02:01:04.106Z,65.18
2022-09-17T02:02:13.462Z,65.26
2022-09-17T02:03:39.823Z,64.83
2022-09-17T02:04:52.168Z,64.41
2022-09-17T02:06:03.224Z,64.91
2022-09-17T02:07:16.454Z,64.73
2022-09-17T02:08:35.202Z,64.69
2022-09-17T02:09:55.383Z,64.91
2022-09-17T02:11:13.773Z,64.79
2022-09-17T02:12:20.368Z,65.09
2022-09-17T02:13:28.384Z,65.02
2022-09-17T02:14:46.560Z,65.21
2022-09-17T02:15:56.558Z,65.33
2022-09-17T02:17:06.893Z,65.72
2022-09-17T02:18:08.399Z,65.41
2022-09-17T02:19:18.987Z,65.36
2022-09-17T02:20:28.291Z,65.79
2022-09-17T02:21:32.750Z,65.36
2022-09-17T02:22:43.227Z,65.60
2022-09-17T02:23:57.732Z,65.53
2022-09-17T02:25:08.518Z,65.32
2022-09-17T02:26:16.209Z,65.52
2022-09-17T02:27:46.640Z,65.93
2022-09-17T02:28:53.839Z,66.62
2022-09-17T02:29:55.466Z,67.21
2022-09-17T02:30:57.063Z,67.08
2022-09-17T02:31:58.593Z,66.66
2022-09-17T02:33:03.794Z,66.80
2022-09-17T02:34:06.791Z,66.54
2022-09-17T02:35:10.317Z,66.11
2022-09-17T02:36:12.016Z,65.63
2022-09-17T02:37:14.268Z,64.65
2022-09-17T02:38:24.593Z,64.82
2022-09-17T02:39:26.932Z,65.92
2022-09-17T02:40:34.926Z,66.77
2022-09-17T02:41:41.986Z,66.99
2022-09-17T02:42:55.393Z,66.44
2022-09-17T02:44:21.235Z,66.41
2022-09-17T02:45:41.028Z,65.96
2022-09-17T02:46:48.653Z,65.90
2022-09-17T02:48:18.481Z,65.70
2022-09-17T02:49:41.437Z,65.88
2022-09-17T02:50:51.732Z,65.58
2022-09-17T02:52:05.222Z,65.38
2022-09-17T02:53:23.094Z,65.26
2022-09-17T02:54:31.312Z,65.31
2022-09-17T02:56:07.218Z,65.15
2022-09-17T02:57:22.536Z,65.51
2022-09-17T02:58:41.410Z,65.42
2022-09-17T02:59:59.572Z,65.58
2022-09-17T03:01:07.681Z,65.08
2022-09-17T03:02:28.987Z,65.27
2022-09-17T03:03:41.302Z,65.20
2022-09-17T03:04:46.881Z,64.89
2022-09-17T03:05:49.931Z,65.11
2022-09-17T03:06:53.067Z,64.48
2022-09-17T03:07:59.811Z,64.64
2022-09-17T03:09:01.392Z,64.07
2022-09-17T03:10:03.580Z,64.26
2022-09-17T03:11:05.944Z,63.96
2022-09-17T03:12:07.785Z,64.37
2022-09-17T03:13:09.299Z,63.89
2022-09-17T03:14:10.829Z,64.46
2022-09-17T03:15:12.364Z,64.61
2022-09-17T03:16:13.877Z,65.63
2022-09-17T03:17:15.461Z,65.94
2022-09-17T03:18:17.078Z,66.46
2022-09-17T03:19:18.597Z,66.50
2022-09-17T03:20:20.327Z,67.12
2022-09-17T03:21:21.831Z,67.69
2022-09-17T03:22:23.391Z,67.97
2022-09-17T03:23:25.167Z,68.06
2022-09-17T03:24:27.219Z,67.69
2022-09-17T03:25:28.773Z,68.28
2022-09-17T03:26:30.323Z,68.82
2022-09-17T03:27:31.872Z,70.51
2022-09-17T03:28:33.617Z,70.48
2022-09-17T03:29:35.171Z,70.77
2022-09-17T03:30:36.772Z,70.34
2022-09-17T03:31:38.327Z,70.63
2022-09-17T03:32:39.973Z,70.26
2022-09-17T03:33:41.481Z,69.94
2022-09-17T03:34:43.082Z,69.54
2022-09-17T03:35:45.704Z,69.80
2022-09-17T03:36:47.310Z,69.36
2022-09-17T03:37:48.890Z,69.22
2022-09-17T03:38:56.966Z,69.07
2022-09-17T03:39:58.500Z,69.36
2022-09-17T03:41:07.141Z,69.23
2022-09-17T03:42:08.830Z,69.67
2022-09-17T03:43:10.525Z,69.37
2022-09-17T03:44:12.062Z,69.13
2022-09-17T03:45:13.977Z,68.75
2022-09-17T03:46:15.624Z,69.34
2022-09-17T03:47:17.380Z,69.39
2022-09-17T03:48:18.917Z,69.64
2022-09-17T03:49:20.506Z,69.45
2022-09-17T03:50:22.014Z,69.46
2022-09-17T03:51:23.667Z,69.09
2022-09-17T03:52:25.190Z,68.92
2022-09-17T03:53:26.732Z,69.26
2022-09-17T03:54:28.238Z,68.08
2022-09-17T03:55:29.792Z,69.21
2022-09-17T03:56:31.548Z,68.99
2022-09-17T03:57:33.104Z,69.74
2022-09-17T03:58:35.320Z,70.72
2022-09-17T03:59:36.935Z,70.50
2022-09-17T04:00:38.497Z,71.45
2022-09-17T04:01:40.351Z,71.59
2022-09-17T04:02:42.078Z,71.94
2022-09-17T04:03:45.331Z,71.77
2022-09-17T04:04:46.866Z,71.44
2022-09-17T04:05:48.369Z,71.26
2022-09-17T04:06:49.925Z,71.48
2022-09-17T04:07:51.423Z,71.26
2022-09-17T04:08:53.529Z,71.28
2022-09-17T04:09:55.026Z,71.60
2022-09-17T04:10:56.596Z,71.76
2022-09-17T04:11:58.287Z,72.43
2022-09-17T04:12:59.981Z,71.70
2022-09-17T04:14:01.707Z,72.06
2022-09-17T04:15:04.174Z,72.30
2022-09-17T04:16:06.151Z,73.02
2022-09-17T04:17:07.971Z,73.62
2022-09-17T04:18:10.120Z,74.17
2022-09-17T04:19:11.704Z,74.01
2022-09-17T04:20:13.299Z,74.33
2022-09-17T04:21:14.809Z,73.79
2022-09-17T04:22:16.328Z,74.00
2022-09-17T04:23:17.909Z,74.03
2022-09-17T04:24:19.633Z,74.46
2022-09-17T04:25:21.208Z,74.82
2022-09-17T04:26:22.724Z,75.00
2022-09-17T04:27:24.301Z,75.40
2022-09-17T04:28:26.502Z,75.18
2022-09-17T04:29:28.302Z,74.66
2022-09-17T04:30:30.043Z,74.30
2022-09-17T04:31:31.796Z,74.85
2022-09-17T04:32:33.392Z,75.10
2022-09-17T04:33:34.983Z,75.33
2022-09-17T04:34:36.875Z,74.58
2022-09-17T04:35:38.410Z,75.06
2022-09-17T04:36:39.908Z,74.90
2022-09-17T04:37:41.456Z,74.42
2022-09-17T04:38:42.978Z,75.00
2022-09-17T04:39:44.630Z,75.99
2022-09-17T04:40:46.668Z,76.64
2022-09-17T04:41:48.199Z,77.55
2022-09-17T04:42:53.590Z,77.91
2022-09-17T04:43:55.101Z,78.82
2022-09-17T04:44:57.295Z,80.39
2022-09-17T04:45:59.077Z,81.35
2022-09-17T04:47:00.672Z,81.87
2022-09-17T04:48:02.412Z,81.53
2022-09-17T04:49:03.972Z,80.89
2022-09-17T04:50:06.193Z,80.82
2022-09-17T04:51:07.705Z,80.85
2022-09-17T04:52:09.276Z,81.52
2022-09-17T04:53:10.783Z,82.01
2022-09-17T04:54:12.293Z,82.10
2022-09-17T04:55:14.845Z,82.69
2022-09-17T04:56:16.361Z,83.80
2022-09-17T04:57:17.890Z,84.85
2022-09-17T04:58:19.410Z,85.04
2022-09-17T04:59:20.984Z,84.47
2022-09-17T05:00:23.658Z,84.92
2022-09-17T05:01:26.217Z,85.00
2022-09-17T05:02:28.280Z,85.36
2022-09-17T05:03:29.864Z,87.58
2022-09-17T05:04:31.406Z,85.88
2022-09-17T05:05:32.978Z,85.77
2022-09-17T05:06:34.479Z,84.85
2022-09-17T05:07:39.534Z,84.91
2022-09-17T05:08:41.104Z,86.36
2022-09-17T05:09:43.029Z,89.00
2022-09-17T05:10:45.131Z,90.42
2022-09-17T05:11:46.732Z,91.16
2022-09-17T05:12:50.262Z,91.10
2022-09-17T05:13:51.919Z,92.22
2022-09-17T05:14:53.439Z,92.28
2022-09-17T05:15:57.074Z,93.69
2022-09-17T05:16:58.600Z,94.15
2022-09-17T05:18:00.165Z,93.90
2022-09-17T05:19:01.799Z,93.84
2022-09-17T05:20:03.523Z,92.89
2022-09-17T05:21:05.353Z,93.34
2022-09-17T05:22:06.998Z,93.60
2022-09-17T05:23:08.563Z,93.51
2022-09-17T05:24:10.109Z,93.52
2022-09-17T05:25:13.816Z,92.56
2022-09-17T05:26:15.796Z,93.10
2022-09-17T05:27:17.400Z,92.39
2022-09-17T05:28:18.928Z,92.72
2022-09-17T05:29:20.504Z,93.08
2022-09-17T05:30:22.436Z,92.50
2022-09-17T05:31:24.066Z,91.86
2022-09-17T05:32:25.567Z,91.81
2022-09-17T05:33:27.632Z,91.49
2022-09-17T05:34:29.204Z,90.77
2022-09-17T05:35:31.486Z,90.35
2022-09-17T05:36:33.021Z,88.25
2022-09-17T05:37:34.592Z,88.49
2022-09-17T05:38:36.103Z,87.29
2022-09-17T05:39:37.696Z,87.84
2022-09-17T05:40:39.291Z,87.78
2022-09-17T05:41:40.918Z,87.99
2022-09-17T05:42:42.484Z,88.64
2022-09-17T05:43:44.337Z,89.16
2022-09-17T05:44:45.884Z,89.60
2022-09-17T05:45:47.400Z,89.48
2022-09-17T05:46:49.053Z,89.25
2022-09-17T05:47:55.556Z,88.04
2022-09-17T05:48:58.029Z,88.18
2022-09-17T05:49:59.697Z,88.83
2022-09-17T05:51:01.249Z,88.07
2022-09-17T05:52:03.917Z,88.88
2022-09-17T05:53:07.616Z,88.88
2022-09-17T05:54:09.503Z,88.15
2022-09-17T05:55:11.231Z,87.58
2022-09-17T05:56:12.782Z,87.29
2022-09-17T05:57:15.976Z,86.86
2022-09-17T05:58:19.326Z,87.25
2022-09-17T05:59:21.499Z,86.73
2022-09-17T06:00:23.116Z,86.63
2022-09-17T06:01:24.878Z,87.02
2022-09-17T06:02:26.468Z,87.13
2022-09-17T06:03:28.168Z,86.29
2022-09-17T06:04:34.537Z,86.53
2022-09-17T06:05:36.560Z,86.50
2022-09-17T06:06:38.946Z,87.42
2022-09-17T06:07:40.542Z,87.54
2022-09-17T06:08:42.053Z,88.15
2022-09-17T06:09:43.628Z,89.19
2022-09-17T06:10:45.183Z,89.98
2022-09-17T06:11:46.672Z,87.49
2022-09-17T06:12:48.347Z,87.60
2022-09-17T06:13:53.402Z,87.16
2022-09-17T06:14:55.195Z,85.68
2022-09-17T06:15:56.763Z,85.56
2022-09-17T06:16:58.358Z,85.14
2022-09-17T06:17:59.884Z,85.56
2022-09-17T06:19:01.745Z,86.07
2022-09-17T06:20:06.373Z,86.12
2022-09-17T06:21:07.872Z,86.24
2022-09-17T06:22:09.396Z,87.60
2022-09-17T06:23:15.801Z,86.64
2022-09-17T06:24:17.580Z,84.67
2022-09-17T06:25:19.139Z,83.34
2022-09-17T06:26:20.823Z,82.08
2022-09-17T06:27:22.375Z,82.61
2022-09-17T06:28:24.600Z,82.36
2022-09-17T06:29:26.121Z,82.75
2022-09-17T06:30:27.648Z,82.58
2022-09-17T06:31:29.356Z,83.08
2022-09-17T06:32:31.036Z,83.45
2022-09-17T06:33:33.195Z,83.90
2022-09-17T06:34:35.262Z,83.52
2022-09-17T06:35:36.767Z,83.53
2022-09-17T06:36:38.304Z,83.59
2022-09-17T06:37:40.872Z,84.58
2022-09-17T06:38:42.828Z,84.48
2022-09-17T06:39:45.819Z,84.90
2022-09-17T06:40:51.996Z,84.89
2022-09-17T06:41:53.535Z,84.27
2022-09-17T06:43:01.627Z,84.09
2022-09-17T06:44:03.745Z,84.89
2022-09-17T06:45:09.275Z,84.56
2022-09-17T06:46:12.743Z,85.82
2022-09-17T06:47:14.879Z,85.34
2022-09-17T06:48:16.470Z,82.96
2022-09-17T06:49:20.752Z,81.07
2022-09-17T06:50:22.911Z,81.39
2022-09-17T06:51:24.680Z,79.79
2022-09-17T06:52:26.240Z,79.22
2022-09-17T06:53:29.436Z,78.49
2022-09-17T06:54:31.227Z,77.29
2022-09-17T06:55:32.741Z,76.88
2022-09-17T06:56:34.447Z,73.67
2022-09-17T06:57:36.022Z,73.75
2022-09-17T06:58:38.535Z,73.43
2022-09-17T06:59:40.075Z,74.20
2022-09-17T07:00:41.690Z,74.29
2022-09-17T07:01:43.583Z,73.39
2022-09-17T07:02:55.426Z,75.09
2022-09-17T07:03:57.096Z,76.78
2022-09-17T07:04:58.698Z,76.81
2022-09-17T07:06:00.762Z,74.68
2022-09-17T07:07:02.301Z,74.05
2022-09-17T07:08:04.644Z,73.18
2022-09-17T07:09:10.834Z,72.32
2022-09-17T07:10:12.690Z,72.03
2022-09-17T07:11:16.013Z,72.85
2022-09-17T07:12:17.772Z,72.23
2022-09-17T07:13:19.291Z,71.08
2022-09-17T07:14:21.205Z,71.21
2022-09-17T07:15:23.332Z,70.75
2022-09-17T07:16:26.811Z,69.94
2022-09-17T07:17:29.690Z,71.52
2022-09-17T07:18:31.328Z,70.70
2022-09-17T07:19:32.858Z,71.31
2022-09-17T07:20:34.449Z,70.03
2022-09-17T07:21:36.063Z,70.41
2022-09-17T07:22:37.621Z,70.05
2022-09-17T07:23:39.211Z,70.95
2022-09-17T07:24:40.883Z,69.20
2022-09-17T07:25:42.389Z,69.37
2022-09-17T07:26:43.887Z,67.54
2022-09-17T07:27:45.396Z,67.33
2022-09-17T07:28:47.058Z,66.18
2022-09-17T07:29:48.575Z,65.28
2022-09-17T07:30:51.864Z,64.92
2022-09-17T07:31:54.562Z,64.78
2022-09-17T07:32:56.064Z,66.17
2022-09-17T07:33:57.615Z,67.66
2022-09-17T07:34:59.153Z,68.17
2022-09-17T07:36:06.438Z,68.33
2022-09-17T07:37:07.931Z,69.32
2022-09-17T07:38:09.496Z,67.73
2022-09-17T07:39:13.145Z,67.62
2022-09-17T07:40:14.951Z,69.31
2022-09-17T07:41:17.724Z,69.56
2022-09-17T07:42:19.264Z,69.54
2022-09-17T07:43:21.087Z,71.46
2022-09-17T07:44:22.744Z,69.84
2022-09-17T07:45:24.867Z,69.95
2022-09-17T07:46:26.555Z,69.25
2022-09-17T07:47:28.088Z,69.44
2022-09-17T07:48:30.415Z,69.42
2022-09-17T07:49:32.020Z,68.93
2022-09-17T07:50:33.852Z,67.48
2022-09-17T07:51:35.501Z,68.38
2022-09-17T07:52:37.069Z,68.72
2022-09-17T07:53:38.587Z,69.79
2022-09-17T07:54:40.111Z,69.70
2022-09-17T07:55:42.496Z,68.69
2022-09-17T07:56:45.020Z,68.69
2022-09-17T07:57:51.179Z,69.05
2022-09-17T07:58:52.834Z,68.99
2022-09-17T07:59:54.364Z,68.87
2022-09-17T08:01:08.339Z,70.02
2022-09-17T08:02:14.071Z,70.19
2022-09-17T08:03:15.923Z,70.20
2022-09-17T08:04:17.531Z,70.08
2022-09-17T08:05:19.072Z,70.40
2022-09-17T08:06:23.238Z,70.03
2022-09-17T08:07:24.892Z,69.72
2022-09-17T08:08:26.398Z,69.05
2022-09-17T08:09:27.920Z,69.80
2022-09-17T08:10:29.464Z,69.37
2022-09-17T08:11:54.599Z,69.70
2022-09-17T08:12:58.093Z,70.37
2022-09-17T08:13:59.958Z,70.45
2022-09-17T08:15:01.584Z,70.43
2022-09-17T08:16:13.383Z,70.85
2022-09-17T08:17:15.091Z,70.05
2022-09-17T08:18:17.572Z,70.84
2022-09-17T08:19:19.574Z,70.56
2022-09-17T08:20:21.282Z,70.58
2022-09-17T08:21:23.973Z,70.31
2022-09-17T08:22:25.468Z,68.98
2022-09-17T08:23:28.670Z,67.31
2022-09-17T08:24:30.193Z,67.23
2022-09-17T08:25:31.688Z,66.75
2022-09-17T08:26:33.278Z,66.84
2022-09-17T08:27:35.075Z,66.09
2022-09-17T08:28:36.915Z,66.28
2022-09-17T08:29:38.466Z,66.80
2022-09-17T08:30:40.025Z,65.56
2022-09-17T08:31:41.699Z,66.01
2022-09-17T08:32:43.321Z,66.18
2022-09-17T08:33:46.595Z,66.59
2022-09-17T08:34:48.124Z,65.28
2022-09-17T08:35:59.408Z,65.24
2022-09-17T08:37:01.333Z,65.86
2022-09-17T08:38:02.862Z,64.99
2022-09-17T08:39:04.555Z,65.21
2022-09-17T08:40:06.833Z,64.06
2022-09-17T08:41:37.172Z,64.03
2022-09-17T08:43:02.472Z,63.76
2022-09-17T08:44:04.589Z,63.70
2022-09-17T08:45:14.178Z,64.07
2022-09-17T08:46:15.808Z,64.39
2022-09-17T08:47:24.301Z,65.54
2022-09-17T08:48:31.533Z,65.14
2022-09-17T08:49:38.185Z,65.33
2022-09-17T08:50:42.521Z,65.54
2022-09-17T08:52:08.426Z,64.69
2022-09-17T08:53:23.434Z,65.60
2022-09-17T08:54:45.313Z,67.04
2022-09-17T08:55:56.834Z,68.12
2022-09-17T08:57:25.454Z,68.38
2022-09-17T08:58:29.516Z,69.25
2022-09-17T08:59:58.973Z,68.97
2022-09-17T09:01:28.127Z,67.89
2022-09-17T09:02:40.518Z,66.70
2022-09-17T09:03:48.090Z,65.89
2022-09-17T09:04:58.533Z,66.05
2022-09-17T09:06:01.607Z,68.25
2022-09-17T09:07:09.124Z,68.48
2022-09-17T09:08:27.104Z,69.39
2022-09-17T09:09:46.509Z,69.41
2022-09-17T09:10:55.705Z,69.48
2022-09-17T09:12:05.994Z,69.00
2022-09-17T09:13:07.966Z,69.67
2022-09-17T09:14:23.917Z,69.17
2022-09-17T09:15:28.660Z,68.58
2022-09-17T09:16:34.384Z,70.12
2022-09-17T09:17:43.873Z,71.72
2022-09-17T09:18:48.628Z,71.59
2022-09-17T09:19:50.301Z,72.85
2022-09-17T09:20:55.675Z,73.14
2022-09-17T09:22:04.320Z,72.66
2022-09-17T09:23:19.105Z,73.77
2022-09-17T09:24:26.392Z,77.04
2022-09-17T09:25:33.872Z,77.49
2022-09-17T09:26:55.300Z,77.94
2022-09-17T09:28:18.319Z,74.79
2022-09-17T09:29:37.865Z,76.85
2022-09-17T09:31:20.805Z,79.00
2022-09-17T09:32:47.374Z,80.81
2022-09-17T09:33:50.522Z,83.83
2022-09-17T09:34:55.860Z,83.85
2022-09-17T09:35:57.520Z,85.40
2022-09-17T09:37:23.519Z,85.88
2022-09-17T09:38:36.943Z,86.34
2022-09-17T09:39:45.705Z,85.31
2022-09-17T09:41:08.329Z,85.92
2022-09-17T09:42:33.213Z,87.56
2022-09-17T09:44:02.705Z,86.95
2022-09-17T09:45:18.018Z,88.54
2022-09-17T09:46:57.868Z,88.92
2022-09-17T09:48:15.846Z,90.59
2022-09-17T09:49:23.444Z,91.29
2022-09-17T09:51:02.246Z,92.09
2022-09-17T09:52:17.402Z,93.54
2022-09-17T09:53:37.244Z,93.20
2022-09-17T09:54:55.860Z,93.46
2022-09-17T09:56:13.813Z,93.03
2022-09-17T09:57:20.263Z,95.75
2022-09-17T09:58:34.785Z,95.88
2022-09-17T09:59:36.755Z,95.97
2022-09-17T10:00:40.368Z,98.41
2022-09-17T10:01:45.197Z,97.13
2022-09-17T10:02:48.759Z,97.78
2022-09-17T10:03:52.652Z,100.00
2022-09-17T10:04:54.175Z,100.00
2022-09-17T10:06:07.754Z,100.00
2022-09-17T10:07:11.447Z,100.00
2022-09-17T10:08:14.713Z,100.00
2022-09-17T10:09:21.157Z,100.00
2022-09-17T10:10:22.912Z,100.00
2022-09-17T10:11:26.713Z,100.00
2022-09-17T10:12:28.255Z,100.00
2022-09-17T10:13:38.166Z,100.00
2022-09-17T10:14:41.848Z,100.00
2022-09-17T10:15:43.385Z,100.00
2022-09-17T10:16:45.425Z,100.00
2022-09-17T10:17:47.276Z,98.81
2022-09-17T10:18:51.284Z,98.77
2022-09-17T10:20:12.207Z,97.43
2022-09-17T10:21:43.289Z,97.58
2022-09-17T10:22:47.003Z,96.73
2022-09-17T10:23:49.731Z,99.75
2022-09-17T10:24:53.837Z,99.83
2022-09-17T10:25:56.194Z,100.00
2022-09-17T10:27:02.819Z,100.00
2022-09-17T10:28:23.483Z,100.00
2022-09-17T10:29:25.222Z,100.00
2022-09-17T10:30:27.567Z,100.00
2022-09-17T10:31:48.372Z,100.00
2022-09-17T10:33:19.678Z,100.00
2022-09-17T10:34:30.189Z,100.00
2022-09-17T10:35:32.181Z,100.00
2022-09-17T10:36:46.311Z,98.27
2022-09-17T10:37:53.134Z,98.80
2022-09-17T10:38:54.744Z,100.00
2022-09-17T10:39:56.652Z,99.25
2022-09-17T10:41:16.894Z,100.00
2022-09-17T10:42:19.871Z,96.81
2022-09-17T10:43:23.160Z,97.73
2022-09-17T10:44:27.444Z,96.22
2022-09-17T10:45:31.143Z,96.40
2022-09-17T10:46:34.146Z,97.56
2022-09-17T10:47:43.892Z,97.13
2022-09-17T10:48:58.735Z,93.47
2022-09-17T10:50:01.806Z,95.63
2022-09-17T10:51:03.717Z,94.41
2022-09-17T10:52:22.461Z,93.71
2022-09-17T10:53:25.789Z,94.81
2022-09-17T10:54:55.242Z,94.12
2022-09-17T10:56:23.016Z,91.47
2022-09-17T10:58:07.378Z,91.94
2022-09-17T10:59:32.743Z,90.59
2022-09-17T11:00:55.285Z,92.19
2022-09-17T11:02:34.421Z,90.68
2022-09-17T11:04:14.074Z,89.77
2022-09-17T11:05:28.293Z,90.50
2022-09-17T11:06:45.587Z,90.77
2022-09-17T11:08:16.290Z,92.21
2022-09-17T11:09:17.779Z,89.43
2022-09-17T11:10:31.259Z,88.25
2022-09-17T11:11:51.744Z,87.11
2022-09-17T11:13:02.438Z,88.12
2022-09-17T11:14:31.255Z,89.79
2022-09-17T11:16:00.559Z,91.10
2022-09-17T11:17:12.292Z,94.16
2022-09-17T11:18:34.868Z,94.60
2022-09-17T11:19:48.335Z,95.47
2022-09-17T11:20:49.807Z,94.52
2022-09-17T11:22:03.527Z,92.48
2022-09-17T11:24:30.769Z,93.14
2022-09-17T11:25:43.836Z,93.21
2022-09-17T11:27:08.660Z,92.89
2022-09-17T11:28:42.629Z,92.26
2022-09-17T11:30:10.175Z,92.87
2022-09-17T11:31:23.228Z,92.12
2022-09-17T11:32:34.371Z,92.49
2022-09-17T11:33:56.510Z,92.61
2022-09-17T11:35:22.150Z,93.65
2022-09-17T11:36:53.285Z,94.69
2022-09-17T11:38:03.856Z,95.53
2022-09-17T11:39:13.950Z,95.11
2022-09-17T11:40:22.193Z,95.21
2022-09-17T11:41:30.374Z,94.51
2022-09-17T11:42:39.216Z,92.25
2022-09-17T11:44:03.805Z,91.10
2022-09-17T11:45:11.258Z,92.45
2022-09-17T11:46:20.081Z,92.97
2022-09-17T11:47:32.761Z,93.66
2022-09-17T11:48:47.971Z,93.99
2022-09-17T11:50:25.582Z,93.39
2022-09-17T11:51:36.490Z,93.48
2022-09-17T11:52:45.898Z,93.01
2022-09-17T11:54:24.709Z,92.77
2022-09-17T11:55:34.734Z,92.83
2022-09-17T11:56:43.816Z,90.23
2022-09-17T11:57:47.463Z,91.67
2022-09-17T11:58:58.095Z,90.74
2022-09-17T12:00:13.299Z,92.06
2022-09-17T12:01:26.393Z,94.60
2022-09-17T12:02:46.841Z,95.65
2022-09-17T12:03:53.366Z,93.48
2022-09-17T12:05:01.440Z,92.36
2022-09-17T12:06:11.342Z,92.15
2022-09-17T12:07:34.469Z,91.80
2022-09-17T12:08:51.548Z,91.03
2022-09-17T12:10:31.564Z,87.67
2022-09-17T12:11:46.034Z,89.21
2022-09-17T12:12:56.823Z,87.67
2022-09-17T12:14:05.184Z,86.84
2022-09-17T12:15:17.452Z,86.87
2022-09-17T12:16:25.549Z,87.16
2022-09-17T12:17:36.886Z,85.58
2022-09-17T12:19:06.271Z,85.57
2022-09-17T12:20:23.432Z,84.35
2022-09-17T12:21:30.500Z,83.80
2022-09-17T12:22:40.325Z,82.23
2022-09-17T12:23:52.180Z,82.09
2022-09-17T12:24:54.626Z,81.45
2022-09-17T12:26:20.677Z,79.66
2022-09-17T12:27:53.092Z,80.13
2022-09-17T12:29:04.760Z,80.62
2022-09-17T12:30:14.006Z,79.36
2022-09-17T12:31:29.809Z,79.71
2022-09-17T12:32:53.118Z,80.70
2022-09-17T12:34:17.999Z,81.41
2022-09-17T12:36:03.070Z,81.47
2022-09-17T12:37:44.664Z,80.39
2022-09-17T12:39:21.387Z,82.54
2022-09-17T12:40:34.944Z,80.64
2022-09-17T12:41:57.080Z,81.69
2022-09-17T12:43:31.335Z,80.56
2022-09-17T12:45:22.352Z,80.95
2022-09-17T12:47:02.020Z,79.38
2022-09-17T12:48:41.013Z,78.83
2022-09-17T12:49:45.519Z,79.38
2022-09-17T12:51:19.668Z,79.57
2022-09-17T12:52:35.917Z,80.55
2022-09-17T12:53:42.323Z,80.22
2022-09-17T12:55:01.840Z,80.66
2022-09-17T12:56:26.470Z,80.12
2022-09-17T12:57:45.854Z,79.49
2022-09-17T12:59:08.092Z,81.01
2022-09-17T13:00:14.845Z,81.91
2022-09-17T13:01:32.662Z,82.39
2022-09-17T13:02:43.800Z,82.68
2022-09-17T13:03:54.424Z,82.57
2022-09-17T13:05:17.639Z,81.13
2022-09-17T13:06:45.097Z,81.35
2022-09-17T13:08:31.720Z,81.79
2022-09-17T13:10:00.007Z,80.82
2022-09-17T13:11:19.872Z,78.96
2022-09-17T13:12:31.372Z,78.75
2022-09-17T13:13:48.105Z,78.68
2022-09-17T13:15:27.751Z,78.54
2022-09-17T13:16:32.477Z,79.53
2022-09-17T13:17:44.840Z,80.92
2022-09-17T13:19:16.013Z,79.37
2022-09-17T13:20:30.427Z,82.09
2022-09-17T13:21:40.409Z,83.15
2022-09-17T13:22:50.277Z,81.20
2022-09-17T13:23:53.731Z,82.49
2022-09-17T13:25:05.439Z,81.86
2022-09-17T13:26:09.621Z,82.83
2022-09-17T13:27:28.179Z,80.21
2022-09-17T13:30:06.435Z,82.47
2022-09-17T13:31:08.762Z,82.91
2022-09-17T13:32:33.464Z,83.00
2022-09-17T13:33:55.255Z,83.28
2022-09-17T13:34:56.776Z,83.13
2022-09-17T13:35:58.312Z,83.30
2022-09-17T13:37:02.129Z,84.49
2022-09-17T13:38:03.830Z,85.95
2022-09-17T13:39:08.585Z,87.74
2022-09-17T13:40:23.598Z,88.28
2022-09-17T13:41:26.588Z,88.92
2022-09-17T13:42:30.439Z,87.51
2022-09-17T13:43:31.999Z,88.79
2022-09-17T13:44:36.760Z,90.34
2022-09-17T13:46:00.041Z,93.66
2022-09-17T13:47:16.591Z,95.41
2022-09-17T13:48:24.707Z,97.46
2022-09-17T13:49:26.491Z,99.59
2022-09-17T13:50:27.973Z,100.00
2022-09-17T13:51:32.491Z,100.00
2022-09-17T13:52:49.794Z,100.00
2022-09-17T13:53:55.041Z,100.00
2022-09-17T13:54:56.871Z,100.00
2022-09-17T13:56:01.139Z,100.00
2022-09-17T13:57:14.813Z,100.00
2022-09-17T13:58:19.081Z,100.00
2022-09-17T13:59:27.922Z,100.00
2022-09-17T14:00:49.503Z,100.00
2022-09-17T14:02:15.948Z,100.00
2022-09-17T14:03:37.241Z,100.00
2022-09-17T14:04:41.382Z,100.00
2022-09-17T14:05:42.956Z,100.00
2022-09-17T14:06:53.892Z,100.00
2022-09-17T14:08:12.807Z,100.00
2022-09-17T14:09:39.172Z,100.00
2022-09-17T14:10:42.776Z,100.00
2022-09-17T14:11:44.317Z,100.00
2022-09-17T14:12:48.729Z,100.00
2022-09-17T14:13:58.143Z,100.00
2022-09-17T14:14:59.733Z,100.00
2022-09-17T14:16:02.226Z,100.00
2022-09-17T14:17:04.710Z,100.00
2022-09-17T14:18:27.993Z,100.00
2022-09-17T14:19:51.941Z,100.00
2022-09-17T14:21:15.167Z,100.00
2022-09-17T14:22:28.084Z,100.00
2022-09-17T14:23:29.603Z,100.00
2022-09-17T14:24:37.026Z,100.00
2022-09-17T14:25:52.593Z,100.00
2022-09-17T14:27:16.038Z,100.00
2022-09-17T14:28:42.825Z,100.00
2022-09-17T14:29:58.133Z,100.00
2022-09-17T14:31:02.905Z,100.00
2022-09-17T14:32:07.006Z,100.00
2022-09-17T14:33:18.799Z,100.00
2022-09-17T14:34:23.748Z,100.00
2022-09-17T14:35:42.518Z,97.85
2022-09-17T14:36:44.206Z,97.82
2022-09-17T14:37:51.568Z,95.15
2022-09-17T14:38:56.866Z,99.32
2022-09-17T14:39:59.189Z,97.82
2022-09-17T14:41:14.955Z,100.00
2022-09-17T14:55:31.151Z,100.00